createdAt,value
2023-06-06T00:08:30.728Z,1.38
2023-06-06T00:18:32.027Z,1.52
2023-06-06T00:28:33.299Z,1.23
2023-06-06T00:38:34.630Z,1.55
2023-06-06T00:48:35.951Z,1.33
2023-06-06T00:58:38.031Z,2.40
2023-06-06T01:08:39.486Z,1.38
2023-06-06T01:18:40.764Z,1.27
2023-06-06T01:28:42.031Z,1.65
2023-06-06T01:49:12.006Z,1.73
2023-06-06T01:59:13.322Z,1.35
2023-06-06T02:09:14.574Z,1.30
2023-06-06T02:19:15.866Z,1.73
2023-06-06T02:29:21.072Z,1.38
2023-06-06T02:39:22.375Z,1.55
2023-06-06T03:10:22.382Z,1.63
2023-06-06T03:20:23.644Z,1.92
2023-06-06T03:30:24.942Z,1.25
2023-06-06T03:40:26.223Z,1.33
2023-06-06T03:50:27.579Z,3.08
2023-06-06T04:00:28.888Z,12.00
2023-06-06T04:10:30.156Z,6.00
2023-06-06T04:20:31.403Z,5.22
2023-06-06T04:30:32.696Z,4.70
2023-06-06T04:40:46.931Z,4.55
2023-06-06T04:50:55.226Z,3.97
2023-06-06T05:00:56.505Z,4.15
2023-06-06T05:10:57.864Z,3.63
2023-06-06T05:20:59.142Z,6.20
2023-06-06T05:31:00.422Z,7.43
2023-06-06T05:41:01.733Z,5.72
2023-06-06T05:51:04.308Z,4.43
2023-06-06T06:01:05.564Z,10.20
2023-06-06T06:11:06.853Z,6.57
2023-06-06T06:21:08.181Z,7.35
2023-06-06T06:31:11.849Z,6.80
2023-06-06T06:41:13.584Z,7.03
2023-06-06T06:51:15.061Z,5.20
2023-06-06T07:01:16.340Z,4.07
2023-06-06T07:11:17.601Z,5.53
2023-06-06T07:21:18.859Z,5.63
2023-06-06T07:31:20.190Z,3.38
2023-06-06T07:41:21.505Z,3.30
2023-06-06T07:51:22.845Z,2.30
2023-06-06T08:01:24.237Z,2.40
2023-06-06T08:11:25.497Z,2.42
2023-06-06T08:21:26.783Z,1.60
2023-06-06T08:31:28.135Z,1.75
2023-06-06T08:41:29.459Z,1.85
2023-06-06T08:51:30.736Z,2.75
2023-06-06T09:01:32.101Z,1.20
2023-06-06T09:11:33.379Z,1.40
2023-06-06T09:21:34.689Z,2.00
2023-06-06T09:31:36.055Z,1.75
2023-06-06T09:41:37.392Z,3.55
2023-06-06T09:51:38.684Z,1.70
2023-06-06T10:01:40.055Z,1.52
2023-06-06T10:11:41.367Z,1.27
2023-06-06T10:21:43.303Z,1.48
2023-06-06T10:31:44.675Z,2.42
2023-06-06T10:41:46.017Z,1.60
2023-06-06T10:51:49.564Z,1.40
2023-06-06T11:01:51.644Z,1.63
2023-06-06T11:11:53.019Z,1.33
2023-06-06T11:21:54.339Z,1.23
2023-06-06T11:31:55.615Z,1.15
2023-06-06T11:41:56.933Z,1.23
2023-06-06T11:51:58.197Z,1.45
2023-06-06T12:01:59.477Z,1.40
2023-06-06T12:12:00.748Z,1.13
2023-06-06T12:22:02.091Z,1.52
2023-06-06T12:32:06.242Z,1.45
2023-06-06T12:42:07.529Z,2.08
2023-06-06T12:52:08.807Z,1.60
2023-06-06T13:02:10.392Z,1.45
2023-06-06T13:12:11.846Z,1.65
2023-06-06T13:22:13.111Z,3.58
2023-06-06T13:32:14.475Z,1.70
2023-06-06T13:42:15.781Z,1.58
2023-06-06T13:52:17.037Z,1.60
2023-06-06T14:02:19.335Z,1.33
2023-06-06T14:12:20.661Z,1.60
2023-06-06T14:22:22.058Z,1.83
2023-06-06T14:32:24.269Z,1.42
2023-06-06T14:42:25.579Z,1.90
2023-06-06T14:52:26.865Z,2.00
2023-06-06T15:02:28.185Z,1.55
2023-06-06T15:12:29.718Z,1.45
2023-06-06T15:22:30.978Z,1.48
2023-06-06T15:32:32.302Z,1.58
2023-06-06T15:42:33.614Z,1.90
2023-06-06T15:52:34.901Z,1.80
2023-06-06T16:02:36.312Z,2.20
2023-06-06T16:12:37.628Z,2.03
2023-06-06T16:22:38.930Z,1.90
2023-06-06T16:32:40.275Z,1.83
2023-06-06T16:42:41.555Z,1.70
2023-06-06T16:52:42.831Z,2.42
2023-06-06T17:02:44.156Z,2.08
2023-06-06T17:12:45.478Z,1.83
2023-06-06T17:22:46.730Z,1.90
2023-06-06T17:32:48.142Z,1.80
2023-06-06T17:42:49.484Z,2.00
2023-06-06T17:52:51.097Z,2.47
2023-06-06T18:02:52.566Z,1.75
2023-06-06T18:12:53.938Z,2.03
2023-06-06T18:22:55.216Z,2.03
2023-06-06T18:32:56.513Z,1.70
2023-06-06T18:42:57.856Z,1.90
2023-06-06T18:52:59.145Z,2.13
2023-06-06T19:03:00.495Z,1.73
2023-06-06T19:13:01.840Z,1.80
2023-06-06T19:23:03.129Z,2.40
2023-06-06T19:33:04.499Z,2.20
2023-06-06T19:43:05.804Z,2.65
2023-06-06T19:53:07.080Z,1.90
2023-06-06T20:03:08.513Z,2.08
2023-06-06T20:13:09.842Z,2.20
2023-06-06T20:23:11.109Z,2.25
2023-06-06T20:33:12.381Z,2.42
2023-06-06T20:43:13.752Z,1.88
2023-06-06T20:53:15.101Z,2.35
2023-06-06T21:03:16.497Z,2.10
2023-06-06T21:13:17.913Z,1.75
2023-06-06T21:23:19.191Z,1.60
2023-06-06T21:33:20.537Z,2.00
2023-06-06T21:43:21.852Z,1.90
2023-06-06T21:53:23.155Z,2.00
2023-06-06T22:03:24.504Z,2.08
2023-06-06T22:13:25.845Z,2.20
2023-06-06T22:23:27.212Z,1.75
2023-06-06T22:33:28.529Z,1.50
2023-06-06T22:43:29.815Z,2.08
2023-06-06T22:53:31.096Z,1.92
2023-06-06T23:03:32.552Z,1.55
2023-06-06T23:13:34.012Z,1.73
2023-06-06T23:23:35.349Z,2.40
2023-06-06T23:33:36.615Z,2.58
2023-06-06T23:43:37.892Z,1.55
2023-06-06T23:53:39.195Z,1.75
